createdAt,value
2022-10-03T00:02:01.034Z,97973.06
2022-10-03T00:04:19.351Z,97978.28
2022-10-03T00:06:40.261Z,97983.56
2022-10-03T00:09:10.251Z,97981.81
2022-10-03T00:11:26.872Z,97975.72
2022-10-03T00:13:42.078Z,97985.38
2022-10-03T00:15:54.905Z,97981.97
2022-10-03T00:18:06.708Z,97993.34
2022-10-03T00:20:14.536Z,97993.44
2022-10-03T00:22:31.701Z,97999.38
2022-10-03T00:24:48.491Z,98003.13
2022-10-03T00:26:57.797Z,97998.88
2022-10-03T00:29:31.008Z,98004.31
2022-10-03T00:31:46.196Z,98012.25
2022-10-03T00:34:04.041Z,98008.81
2022-10-03T00:36:14.855Z,98017.47
2022-10-03T00:38:28.447Z,98025.34
2022-10-03T00:40:55.850Z,98026.31
2022-10-03T00:43:41.796Z,98030.72
2022-10-03T00:46:13.850Z,98031.56
2022-10-03T00:48:41.646Z,98018.53
2022-10-03T00:51:00.363Z,98031.63
2022-10-03T00:53:20.829Z,98027.13
2022-10-03T00:55:34.320Z,98022.81
2022-10-03T00:57:53.764Z,98020.28
2022-10-03T01:00:15.536Z,98012.38
2022-10-03T01:02:30.908Z,98004.56
2022-10-03T01:04:50.459Z,98008.84
2022-10-03T01:07:05.907Z,98013.16
2022-10-03T01:09:38.761Z,98015.50
2022-10-03T01:11:54.986Z,98011.00
2022-10-03T01:14:11.363Z,98018.69
2022-10-03T01:16:22.522Z,98016.84
2022-10-03T01:18:41.237Z,98009.78
2022-10-03T01:20:53.738Z,98018.28
2022-10-03T01:23:14.130Z,98016.44
2022-10-03T01:25:20.650Z,98016.34
2022-10-03T01:27:59.536Z,98017.88
2022-10-03T01:30:23.789Z,98016.22
2022-10-03T01:32:34.370Z,98019.69
2022-10-03T01:34:43.644Z,98021.34
2022-10-03T01:36:55.498Z,98022.16
2022-10-03T01:39:02.491Z,98028.16
2022-10-03T01:41:11.718Z,98030.59
2022-10-03T01:43:21.072Z,98034.09
2022-10-03T01:45:32.968Z,98036.69
2022-10-03T01:47:38.595Z,98025.44
2022-10-03T01:49:47.950Z,98039.38
2022-10-03T01:52:01.132Z,98041.97
2022-10-03T01:54:14.961Z,98055.91
2022-10-03T01:56:26.808Z,98056.84
2022-10-03T01:58:34.543Z,98061.19
2022-10-03T02:00:54.972Z,98061.19
2022-10-03T02:03:09.202Z,98064.78
2022-10-03T02:05:19.286Z,98068.28
2022-10-03T02:07:29.411Z,98076.06
2022-10-03T02:09:45.098Z,98082.16
2022-10-03T02:12:01.389Z,98076.06
2022-10-03T02:14:21.285Z,98076.94
2022-10-03T02:16:34.724Z,98087.44
2022-10-03T02:18:46.237Z,98088.38
2022-10-03T02:20:52.211Z,98089.41
2022-10-03T02:22:57.228Z,98088.03
2022-10-03T02:25:10.906Z,98084.66
2022-10-03T02:27:52.783Z,98084.06
2022-10-03T02:30:19.872Z,98084.94
2022-10-03T02:33:11.555Z,98082.25
2022-10-03T02:35:35.740Z,98075.28
2022-10-03T02:37:58.546Z,98078.81
2022-10-03T02:40:30.234Z,98080.56
2022-10-03T02:43:19.400Z,98078.00
2022-10-03T02:45:51.756Z,98084.84
2022-10-03T02:48:31.786Z,98084.81
2022-10-03T02:51:21.879Z,98081.38
2022-10-03T02:54:03.319Z,98085.63
2022-10-03T02:56:44.608Z,98089.06
2022-10-03T02:59:13.009Z,98090.78
2022-10-03T03:01:44.888Z,98089.84
2022-10-03T03:04:23.062Z,98088.09
2022-10-03T03:06:56.491Z,98081.94
2022-10-03T03:09:19.117Z,98087.13
2022-10-03T03:11:46.984Z,98087.97
2022-10-03T03:14:20.521Z,98089.59
2022-10-03T03:16:53.172Z,98089.59
2022-10-03T03:19:13.311Z,98093.88
2022-10-03T03:21:35.718Z,98093.00
2022-10-03T03:24:15.417Z,98089.59
2022-10-03T03:26:42.099Z,98089.59
2022-10-03T03:28:55.461Z,98077.44
2022-10-03T03:31:11.000Z,98085.22
2022-10-03T03:33:23.762Z,98080.75
2022-10-03T03:35:40.834Z,98072.22
2022-10-03T03:37:52.276Z,98078.25
2022-10-03T03:40:13.236Z,98069.50
2022-10-03T03:42:49.686Z,98066.88
2022-10-03T03:45:08.456Z,98064.88
2022-10-03T03:47:31.354Z,98057.16
2022-10-03T03:49:47.688Z,98056.13
2022-10-03T03:52:01.403Z,98059.66
2022-10-03T03:54:23.341Z,98054.63
2022-10-03T03:56:41.097Z,98059.19
2022-10-03T03:58:51.245Z,98051.44
2022-10-03T04:01:12.626Z,98054.19
2022-10-03T04:03:35.599Z,98057.81
2022-10-03T04:06:05.796Z,98062.22
2022-10-03T04:08:35.673Z,98064.97
2022-10-03T04:10:51.055Z,98065.19
2022-10-03T04:13:26.118Z,98066.19
2022-10-03T04:15:42.109Z,98059.25
2022-10-03T04:18:29.199Z,98059.38
2022-10-03T04:20:51.296Z,98066.28
2022-10-03T04:23:09.087Z,98061.94
2022-10-03T04:25:26.309Z,98066.28
2022-10-03T04:27:54.906Z,98069.72
2022-10-03T04:30:09.329Z,98078.47
2022-10-03T04:32:27.734Z,98076.84
2022-10-03T04:34:47.551Z,98078.75
2022-10-03T04:37:04.040Z,98084.84
2022-10-03T04:39:17.175Z,98082.28
2022-10-03T04:41:32.426Z,98083.97
2022-10-03T04:43:44.084Z,98086.50
2022-10-03T04:46:00.026Z,98094.34
2022-10-03T04:48:12.854Z,98090.78
2022-10-03T04:50:26.769Z,98090.78
2022-10-03T04:52:39.314Z,98090.03
2022-10-03T04:54:51.015Z,98094.38
2022-10-03T04:57:02.442Z,98090.16
2022-10-03T04:59:24.742Z,98095.53
2022-10-03T05:01:34.800Z,98096.50
2022-10-03T05:03:46.952Z,98098.41
2022-10-03T05:05:55.014Z,98096.81
2022-10-03T05:08:13.580Z,98098.59
2022-10-03T05:10:30.949Z,98103.84
2022-10-03T05:12:41.974Z,98101.19
2022-10-03T05:15:02.540Z,98110.72
2022-10-03T05:17:19.625Z,98112.38
2022-10-03T05:19:48.590Z,98111.44
2022-10-03T05:22:01.098Z,98112.22
2022-10-03T05:24:18.122Z,98113.06
2022-10-03T05:26:44.726Z,98114.72
2022-10-03T05:28:56.914Z,98113.00
2022-10-03T05:31:05.456Z,98114.66
2022-10-03T05:33:18.763Z,98119.84
2022-10-03T05:35:30.238Z,98119.88
2022-10-03T05:38:04.187Z,98118.19
2022-10-03T05:40:17.274Z,98127.75
2022-10-03T05:43:02.387Z,98118.19
2022-10-03T05:45:23.435Z,98130.28
2022-10-03T05:47:50.373Z,98132.06
2022-10-03T05:50:18.399Z,98142.44
2022-10-03T05:52:44.263Z,98143.41
2022-10-03T05:55:12.771Z,98141.72
2022-10-03T05:57:41.544Z,98151.28
2022-10-03T06:00:07.659Z,98159.94
2022-10-03T06:02:39.901Z,98162.56
2022-10-03T06:05:03.609Z,98168.59
2022-10-03T06:07:19.381Z,98167.03
2022-10-03T06:09:42.863Z,98173.81
2022-10-03T06:12:00.088Z,98175.66
2022-10-03T06:14:24.349Z,98178.13
2022-10-03T06:16:37.915Z,98174.72
2022-10-03T06:19:30.519Z,98173.84
2022-10-03T06:22:00.602Z,98176.44
2022-10-03T06:24:35.505Z,98180.91
2022-10-03T06:26:54.304Z,98179.94
2022-10-03T06:29:25.011Z,98181.56
2022-10-03T06:32:07.144Z,98181.00
2022-10-03T06:34:40.072Z,98180.28
2022-10-03T06:37:13.843Z,98182.91
2022-10-03T06:39:56.480Z,98190.63
2022-10-03T06:42:33.877Z,98202.59
2022-10-03T06:44:55.111Z,98204.44
2022-10-03T06:47:24.751Z,98197.31
2022-10-03T06:50:16.652Z,98198.94
2022-10-03T06:52:41.314Z,98215.81
2022-10-03T06:55:13.953Z,98202.44
2022-10-03T06:57:48.012Z,98201.41
2022-10-03T07:00:06.923Z,98205.69
2022-10-03T07:02:43.015Z,98209.88
2022-10-03T07:05:21.687Z,98215.09
2022-10-03T07:07:56.363Z,98214.88
2022-10-03T07:10:20.003Z,98214.59
2022-10-03T07:12:54.702Z,98213.72
2022-10-03T07:15:38.102Z,98221.38
2022-10-03T07:18:07.126Z,98225.66
2022-10-03T07:20:49.366Z,98229.03
2022-10-03T07:23:22.380Z,98227.38
2022-10-03T07:25:45.967Z,98223.09
2022-10-03T07:28:01.072Z,98223.94
2022-10-03T07:30:10.634Z,98221.09
2022-10-03T07:32:39.090Z,98224.41
2022-10-03T07:35:17.844Z,98222.59
2022-10-03T07:37:54.854Z,98221.63
2022-10-03T07:40:26.999Z,98232.78
2022-10-03T07:42:46.918Z,98231.13
2022-10-03T07:45:25.035Z,98222.47
2022-10-03T07:47:53.944Z,98227.78
2022-10-03T07:50:31.152Z,98228.59
2022-10-03T07:53:02.464Z,98220.69
2022-10-03T07:55:37.402Z,98225.91
2022-10-03T07:58:07.721Z,98225.91
2022-10-03T08:00:17.883Z,98225.91
2022-10-03T08:03:11.101Z,98227.66
2022-10-03T08:05:25.226Z,98233.66
2022-10-03T08:07:54.244Z,98231.72
2022-10-03T08:10:17.085Z,98237.75
2022-10-03T08:12:41.919Z,98236.78
2022-10-03T08:14:56.951Z,98237.53
2022-10-03T08:17:17.206Z,98231.41
2022-10-03T08:19:34.101Z,98235.63
2022-10-03T08:21:53.348Z,98240.00
2022-10-03T08:24:25.199Z,98244.44
2022-10-03T08:26:42.579Z,98242.53
2022-10-03T08:29:08.687Z,98245.22
2022-10-03T08:31:33.123Z,98247.72
2022-10-03T08:33:53.729Z,98248.53
2022-10-03T08:36:42.538Z,98254.53
2022-10-03T08:39:07.656Z,98253.41
2022-10-03T08:41:47.010Z,98250.59
2022-10-03T08:44:46.657Z,98255.06
2022-10-03T08:47:14.067Z,98249.78
2022-10-03T08:49:44.226Z,98249.72
2022-10-03T08:52:01.350Z,98242.63
2022-10-03T08:54:24.737Z,98250.38
2022-10-03T08:56:43.999Z,98246.09
2022-10-03T08:59:11.530Z,98248.66
2022-10-03T09:01:42.307Z,98246.03
2022-10-03T09:04:35.805Z,98248.53
2022-10-03T09:07:20.108Z,98246.69
2022-10-03T09:09:45.631Z,98237.81
2022-10-03T09:12:24.867Z,98247.19
2022-10-03T09:14:51.980Z,98242.66
2022-10-03T09:17:09.331Z,98241.72
2022-10-03T09:19:41.662Z,98245.19
2022-10-03T09:22:09.568Z,98244.00
2022-10-03T09:24:55.141Z,98251.75
2022-10-03T09:27:31.577Z,98242.97
2022-10-03T09:29:52.584Z,98252.31
2022-10-03T09:32:32.231Z,98248.56
2022-10-03T09:35:07.201Z,98244.91
2022-10-03T09:37:27.347Z,98243.16
2022-10-03T09:40:17.240Z,98244.69
2022-10-03T09:43:06.384Z,98239.28
2022-10-03T09:45:26.643Z,98236.59
2022-10-03T09:47:59.693Z,98244.28
2022-10-03T09:50:53.036Z,98246.78
2022-10-03T09:53:23.952Z,98239.03
2022-10-03T09:55:41.579Z,98227.81
2022-10-03T09:58:04.143Z,98237.59
2022-10-03T10:00:27.683Z,98229.78
2022-10-03T10:03:03.935Z,98231.47
2022-10-03T10:05:37.617Z,98229.69
2022-10-03T10:08:11.098Z,98232.25
2022-10-03T10:10:49.534Z,98226.81
2022-10-03T10:13:13.010Z,98231.13
2022-10-03T10:15:31.055Z,98225.47
2022-10-03T10:18:13.608Z,98227.34
2022-10-03T10:20:37.480Z,98222.28
2022-10-03T10:23:13.238Z,98223.03
2022-10-03T10:25:29.894Z,98223.03
2022-10-03T10:28:08.119Z,98220.19
2022-10-03T10:30:27.567Z,98221.16
2022-10-03T10:33:02.929Z,98226.47
2022-10-03T10:35:53.057Z,98224.94
2022-10-03T10:38:18.859Z,98231.13
2022-10-03T10:40:47.861Z,98231.19
2022-10-03T10:43:40.489Z,98232.13
2022-10-03T10:46:06.810Z,98230.31
2022-10-03T10:48:45.585Z,98228.78
2022-10-03T10:51:16.714Z,98232.28
2022-10-03T10:53:55.772Z,98231.53
2022-10-03T10:56:28.255Z,98229.78
2022-10-03T10:59:32.420Z,98228.81
2022-10-03T11:02:08.246Z,98216.47
2022-10-03T11:04:54.459Z,98222.34
2022-10-03T11:07:40.837Z,98219.09
2022-10-03T11:10:31.009Z,98209.38
2022-10-03T11:13:20.235Z,98211.19
2022-10-03T11:15:54.177Z,98215.22
2022-10-03T11:18:24.625Z,98205.56
2022-10-03T11:21:05.778Z,98206.13
2022-10-03T11:23:41.947Z,98207.63
2022-10-03T11:26:24.140Z,98208.75
2022-10-03T11:29:10.839Z,98211.13
2022-10-03T11:31:49.723Z,98198.75
2022-10-03T11:34:22.474Z,98203.13
2022-10-03T11:36:57.491Z,98207.56
2022-10-03T11:39:05.894Z,98205.06
2022-10-03T11:41:21.126Z,98204.25
2022-10-03T11:44:05.020Z,98202.63
2022-10-03T11:46:35.935Z,98208.50
2022-10-03T11:48:42.237Z,98204.19
2022-10-03T11:50:52.652Z,98195.44
2022-10-03T11:53:10.429Z,98203.41
2022-10-03T11:55:26.275Z,98196.06
2022-10-03T11:57:33.432Z,98193.63
2022-10-03T11:59:48.272Z,98196.47
2022-10-03T12:02:14.778Z,98191.25
2022-10-03T12:04:25.866Z,98187.94
2022-10-03T12:07:05.137Z,98185.13
2022-10-03T12:09:19.012Z,98181.16
2022-10-03T12:11:27.522Z,98176.38
2022-10-03T12:13:36.950Z,98190.75
2022-10-03T12:15:44.294Z,98186.31
2022-10-03T12:17:56.428Z,98179.47
2022-10-03T12:20:05.913Z,98182.19
2022-10-03T12:22:20.445Z,98169.56
2022-10-03T12:24:27.271Z,98166.84
2022-10-03T12:26:45.139Z,98169.47
2022-10-03T12:28:54.971Z,98164.06
2022-10-03T12:31:02.425Z,98165.47
2022-10-03T12:33:35.115Z,98174.00
2022-10-03T12:35:45.433Z,98172.28
2022-10-03T12:38:03.415Z,98163.69
2022-10-03T12:40:16.850Z,98165.59
2022-10-03T12:42:29.928Z,98165.53
2022-10-03T12:44:45.248Z,98158.03
2022-10-03T12:47:02.988Z,98155.75
2022-10-03T12:49:12.064Z,98148.91
2022-10-03T12:51:24.331Z,98153.44
2022-10-03T12:53:41.683Z,98143.97
2022-10-03T12:55:56.517Z,98144.44
2022-10-03T12:58:08.478Z,98144.09
2022-10-03T13:00:20.818Z,98149.03
2022-10-03T13:02:29.821Z,98146.09
2022-10-03T13:04:42.678Z,98144.09
2022-10-03T13:07:04.423Z,98145.81
2022-10-03T13:09:23.103Z,98137.19
2022-10-03T13:11:37.236Z,98132.16
2022-10-03T13:13:55.260Z,98138.28
2022-10-03T13:16:18.514Z,98134.19
2022-10-03T13:18:47.605Z,98131.56
2022-10-03T13:20:59.871Z,98131.00
2022-10-03T13:23:11.748Z,98123.75
2022-10-03T13:25:19.641Z,98128.69
2022-10-03T13:27:37.186Z,98122.16
2022-10-03T13:29:44.275Z,98119.13
2022-10-03T13:32:07.463Z,98132.53
2022-10-03T13:34:19.536Z,98125.84
2022-10-03T13:36:27.410Z,98128.44
2022-10-03T13:38:58.287Z,98135.75
2022-10-03T13:41:11.120Z,98125.84
2022-10-03T13:43:19.615Z,98126.28
2022-10-03T13:45:25.211Z,98125.94
2022-10-03T13:47:46.390Z,98124.41
2022-10-03T13:49:53.577Z,98124.69
2022-10-03T13:52:02.319Z,98117.28
2022-10-03T13:54:09.181Z,98118.94
2022-10-03T13:56:21.246Z,98121.75
2022-10-03T13:58:39.153Z,98124.53
2022-10-03T14:01:11.313Z,98121.22
2022-10-03T14:03:26.327Z,98115.88
2022-10-03T14:05:55.161Z,98123.94
2022-10-03T14:08:07.555Z,98115.38
2022-10-03T14:10:30.337Z,98114.00
2022-10-03T14:12:55.692Z,98103.81
2022-10-03T14:15:18.454Z,98111.94
2022-10-03T14:17:30.663Z,98109.41
2022-10-03T14:19:41.536Z,98104.41
2022-10-03T14:22:07.574Z,98097.00
2022-10-03T14:24:26.365Z,98095.34
2022-10-03T14:26:38.664Z,98100.03
2022-10-03T14:28:51.390Z,98103.59
2022-10-03T14:31:06.685Z,98089.22
2022-10-03T14:33:22.227Z,98088.44
2022-10-03T14:35:38.650Z,98092.34
2022-10-03T14:37:47.202Z,98099.28
2022-10-03T14:40:03.328Z,98095.44
2022-10-03T14:42:33.228Z,98092.41
2022-10-03T14:44:42.234Z,98099.56
2022-10-03T14:46:51.377Z,98099.66
2022-10-03T14:48:59.792Z,98092.84
2022-10-03T14:51:11.372Z,98092.19
2022-10-03T14:53:20.256Z,98096.47
2022-10-03T14:55:29.993Z,98086.63
2022-10-03T14:57:47.856Z,98082.94
2022-10-03T15:00:00.068Z,98082.09
2022-10-03T15:02:26.326Z,98089.13
2022-10-03T15:04:33.425Z,98089.91
2022-10-03T15:06:54.311Z,98088.81
2022-10-03T15:08:59.902Z,98085.81
2022-10-03T15:11:06.313Z,98086.91
2022-10-03T15:13:10.599Z,98087.84
2022-10-03T15:15:19.431Z,98079.94
2022-10-03T15:17:24.930Z,98074.66
2022-10-03T15:19:32.603Z,98070.31
2022-10-03T15:21:36.073Z,98075.94
2022-10-03T15:23:43.619Z,98072.72
2022-10-03T15:25:53.015Z,98079.00
2022-10-03T15:27:59.395Z,98076.34
2022-10-03T15:30:05.613Z,98078.13
2022-10-03T15:32:22.635Z,98074.66
2022-10-03T15:34:31.308Z,98072.34
2022-10-03T15:36:38.523Z,98073.78
2022-10-03T15:38:44.192Z,98075.41
2022-10-03T15:40:53.578Z,98077.75
2022-10-03T15:43:04.551Z,98081.81
2022-10-03T15:45:08.901Z,98073.50
2022-10-03T15:47:16.794Z,98074.00
2022-10-03T15:49:26.081Z,98076.13
2022-10-03T15:51:32.757Z,98071.28
2022-10-03T15:53:37.702Z,98069.97
2022-10-03T15:55:46.684Z,98066.84
2022-10-03T15:57:53.823Z,98068.09
2022-10-03T16:00:02.952Z,98066.78
2022-10-03T16:02:16.435Z,98073.34
2022-10-03T16:04:23.993Z,98069.34
2022-10-03T16:06:36.013Z,98066.13
2022-10-03T16:08:53.700Z,98065.50
2022-10-03T16:11:06.588Z,98065.03
2022-10-03T16:13:26.475Z,98068.97
2022-10-03T16:15:43.546Z,98067.56
2022-10-03T16:17:49.963Z,98071.25
2022-10-03T16:19:55.961Z,98061.91
2022-10-03T16:22:20.351Z,98059.31
2022-10-03T16:24:35.205Z,98058.81
2022-10-03T16:26:50.417Z,98067.91
2022-10-03T16:29:05.012Z,98064.72
2022-10-03T16:31:15.037Z,98064.97
2022-10-03T16:33:21.299Z,98055.63
2022-10-03T16:35:33.669Z,98061.94
2022-10-03T16:37:41.807Z,98064.00
2022-10-03T16:39:51.873Z,98064.19
2022-10-03T16:41:56.260Z,98060.13
2022-10-03T16:44:01.652Z,98067.38
2022-10-03T16:46:09.839Z,98058.00
2022-10-03T16:48:33.215Z,98060.03
2022-10-03T16:50:38.941Z,98066.38
2022-10-03T16:52:43.930Z,98059.66
2022-10-03T16:54:47.913Z,98067.72
2022-10-03T16:56:58.111Z,98075.03
2022-10-03T16:59:07.410Z,98072.69
2022-10-03T17:01:26.878Z,98068.59
2022-10-03T17:03:37.233Z,98075.91
2022-10-03T17:05:47.146Z,98081.22
2022-10-03T17:07:52.774Z,98088.38
2022-10-03T17:09:57.063Z,98087.59
2022-10-03T17:12:01.638Z,98091.19
2022-10-03T17:14:08.121Z,98095.72
2022-10-03T17:16:17.679Z,98098.56
2022-10-03T17:18:26.170Z,98091.78
2022-10-03T17:20:40.429Z,98088.41
2022-10-03T17:22:49.827Z,98074.44
2022-10-03T17:24:59.318Z,98075.66
2022-10-03T17:27:09.243Z,98072.38
2022-10-03T17:29:17.759Z,98070.13
2022-10-03T17:31:30.234Z,98072.06
2022-10-03T17:33:42.659Z,98068.06
2022-10-03T17:35:54.821Z,98069.09
2022-10-03T17:38:37.263Z,98063.28
2022-10-03T17:40:51.469Z,98065.31
2022-10-03T17:43:00.075Z,98067.25
2022-10-03T17:45:13.299Z,98060.41
2022-10-03T17:47:23.181Z,98059.66
2022-10-03T17:49:41.449Z,98052.13
2022-10-03T17:51:48.125Z,98056.63
2022-10-03T17:53:57.686Z,98053.44
2022-10-03T17:56:05.870Z,98056.28
2022-10-03T17:58:14.576Z,98061.66
2022-10-03T18:00:21.293Z,98059.03
2022-10-03T18:02:31.054Z,98066.06
2022-10-03T18:04:41.386Z,98066.25
2022-10-03T18:06:47.474Z,98071.00
2022-10-03T18:08:53.394Z,98069.38
2022-10-03T18:10:58.795Z,98072.19
2022-10-03T18:13:03.767Z,98068.00
2022-10-03T18:15:48.760Z,98071.75
2022-10-03T18:18:08.790Z,98071.69
2022-10-03T18:20:27.369Z,98067.44
2022-10-03T18:22:37.178Z,98069.44
2022-10-03T18:24:53.125Z,98076.03
2022-10-03T18:27:10.403Z,98069.75
2022-10-03T18:29:23.566Z,98067.59
2022-10-03T18:31:27.854Z,98062.56
2022-10-03T18:33:37.276Z,98060.13
2022-10-03T18:35:41.475Z,98064.59
2022-10-03T18:38:12.797Z,98064.31
2022-10-03T18:40:21.319Z,98056.34
2022-10-03T18:42:28.214Z,98059.00
2022-10-03T18:44:33.903Z,98049.41
2022-10-03T18:46:42.067Z,98045.94
2022-10-03T18:49:15.739Z,98052.91
2022-10-03T18:51:26.170Z,98053.78
2022-10-03T18:53:35.674Z,98051.28
2022-10-03T18:55:44.917Z,98047.00
2022-10-03T18:57:56.246Z,98058.44
2022-10-03T19:00:05.463Z,98058.47
2022-10-03T19:02:18.625Z,98062.94
2022-10-03T19:04:36.131Z,98065.69
2022-10-03T19:06:42.541Z,98057.97
2022-10-03T19:08:51.726Z,98060.72
2022-10-03T19:11:02.714Z,98059.00
2022-10-03T19:13:16.184Z,98061.63
2022-10-03T19:15:24.505Z,98051.22
2022-10-03T19:17:34.757Z,98061.72
2022-10-03T19:19:50.182Z,98059.22
2022-10-03T19:21:53.643Z,98065.31
2022-10-03T19:24:05.287Z,98059.22
2022-10-03T19:26:13.894Z,98061.91
2022-10-03T19:28:20.856Z,98066.28
2022-10-03T19:30:25.892Z,98058.50
2022-10-03T19:32:35.371Z,98054.34
2022-10-03T19:34:40.288Z,98063.13
2022-10-03T19:36:43.503Z,98062.31
2022-10-03T19:38:48.277Z,98068.50
2022-10-03T19:41:00.154Z,98071.09
2022-10-03T19:43:07.416Z,98080.69
2022-10-03T19:45:14.634Z,98082.44
2022-10-03T19:47:18.874Z,98075.56
2022-10-03T19:49:28.434Z,98069.59
2022-10-03T19:51:31.204Z,98072.28
2022-10-03T19:53:33.849Z,98076.72
2022-10-03T19:55:39.052Z,98068.16
2022-10-03T19:57:46.143Z,98070.97
2022-10-03T19:59:53.875Z,98064.19
2022-10-03T20:01:56.604Z,98057.34
2022-10-03T20:04:00.654Z,98054.03
2022-10-03T20:06:06.940Z,98059.25
2022-10-03T20:08:22.824Z,98050.66
2022-10-03T20:10:36.900Z,98054.22
2022-10-03T20:12:43.901Z,98056.78
2022-10-03T20:14:52.209Z,98053.47
2022-10-03T20:16:57.979Z,98049.16
2022-10-03T20:19:08.365Z,98051.81
2022-10-03T20:21:13.364Z,98051.88
2022-10-03T20:23:18.792Z,98054.53
2022-10-03T20:25:32.449Z,98059.03
2022-10-03T20:27:40.135Z,98062.56
2022-10-03T20:29:49.357Z,98060.88
2022-10-03T20:31:59.916Z,98051.41
2022-10-03T20:34:06.875Z,98052.31
2022-10-03T20:36:18.635Z,98056.72
2022-10-03T20:38:30.260Z,98049.81
2022-10-03T20:40:37.554Z,98047.25
2022-10-03T20:42:46.723Z,98044.69
2022-10-03T20:45:02.509Z,98043.81
2022-10-03T20:47:11.689Z,98044.88
2022-10-03T20:49:24.596Z,98049.31
2022-10-03T20:51:40.387Z,98045.03
2022-10-03T20:53:43.559Z,98043.38
2022-10-03T20:55:51.212Z,98036.41
2022-10-03T20:58:02.295Z,98032.25
2022-10-03T21:00:10.322Z,98041.19
2022-10-03T21:02:25.754Z,98045.72
2022-10-03T21:04:33.892Z,98051.81
2022-10-03T21:06:53.692Z,98040.53
2022-10-03T21:08:57.977Z,98041.47
2022-10-03T21:11:02.643Z,98035.50
2022-10-03T21:13:09.566Z,98029.38
2022-10-03T21:15:15.501Z,98041.50
2022-10-03T21:17:21.136Z,98040.63
2022-10-03T21:19:38.792Z,98041.50
2022-10-03T21:21:46.642Z,98044.16
2022-10-03T21:23:54.711Z,98031.84
2022-10-03T21:26:01.403Z,98037.16
2022-10-03T21:28:05.468Z,98038.03
2022-10-03T21:30:18.586Z,98039.81
2022-10-03T21:32:39.516Z,98042.47
2022-10-03T21:34:49.576Z,98035.56
2022-10-03T21:37:03.269Z,98024.22
2022-10-03T21:39:17.604Z,98028.66
2022-10-03T21:41:29.327Z,98027.09
2022-10-03T21:43:45.194Z,98015.88
2022-10-03T21:45:55.533Z,98011.56
2022-10-03T21:48:04.627Z,98012.50
2022-10-03T21:50:12.360Z,98016.00
2022-10-03T21:52:45.711Z,98016.03
2022-10-03T21:55:00.039Z,98008.44
2022-10-03T21:57:12.888Z,98014.63
2022-10-03T21:59:44.282Z,98006.03
2022-10-03T22:01:53.643Z,98004.28
2022-10-03T22:04:09.054Z,98009.66
2022-10-03T22:06:20.163Z,98004.50
2022-10-03T22:08:24.804Z,97997.59
2022-10-03T22:10:30.640Z,97999.44
2022-10-03T22:12:43.567Z,97999.44
2022-10-03T22:14:53.713Z,97986.41
2022-10-03T22:17:06.178Z,97990.75
2022-10-03T22:19:20.961Z,97987.22
2022-10-03T22:21:27.375Z,97985.66
2022-10-03T22:23:39.486Z,97984.78
2022-10-03T22:25:52.353Z,97984.78
2022-10-03T22:28:02.491Z,97984.78
2022-10-03T22:30:09.656Z,97983.97
2022-10-03T22:32:17.925Z,97982.41
2022-10-03T22:34:36.640Z,97979.06
2022-10-03T22:36:40.378Z,97984.34
2022-10-03T22:38:43.283Z,97987.81
2022-10-03T22:40:50.454Z,97980.09
2022-10-03T22:42:56.902Z,97986.19
2022-10-03T22:44:59.816Z,97982.78
2022-10-03T22:47:07.453Z,97979.22
2022-10-03T22:49:17.368Z,97977.53
2022-10-03T22:51:23.361Z,97968.00
2022-10-03T22:53:32.376Z,97966.22
2022-10-03T22:55:35.208Z,97971.56
2022-10-03T22:57:40.261Z,97976.69
2022-10-03T22:59:48.638Z,97964.66
2022-10-03T23:01:53.230Z,97966.31
2022-10-03T23:03:56.539Z,97963.00
2022-10-03T23:06:30.499Z,97967.38
2022-10-03T23:08:47.872Z,97958.25
2022-10-03T23:10:56.362Z,97966.13
2022-10-03T23:13:05.058Z,97963.53
2022-10-03T23:15:11.117Z,97961.00
2022-10-03T23:17:36.974Z,97961.88
2022-10-03T23:19:51.643Z,97964.63
2022-10-03T23:21:57.867Z,97962.06
2022-10-03T23:24:06.254Z,97956.97
2022-10-03T23:26:39.571Z,97956.13
2022-10-03T23:28:54.541Z,97963.03
2022-10-03T23:30:57.148Z,97954.41
2022-10-03T23:33:00.800Z,97959.53
2022-10-03T23:35:20.221Z,97952.56
2022-10-03T23:37:40.919Z,97943.81
2022-10-03T23:39:46.022Z,97950.00
2022-10-03T23:42:00.954Z,97955.19
2022-10-03T23:44:03.852Z,97944.72
2022-10-03T23:46:12.516Z,97952.63
2022-10-03T23:48:19.667Z,97955.22
2022-10-03T23:50:25.371Z,97954.41
2022-10-03T23:52:32.642Z,97950.16
2022-10-03T23:54:35.362Z,97952.84
2022-10-03T23:56:42.162Z,97941.66
2022-10-03T23:58:56.951Z,97937.47
